sensor_id;sensor_type;location;lat;lon;timestamp;temperature;humidity
38514;DHT22;24282;48.400;10.808;2023-02-11T00:01:30;-3274.60;78.80
38514;DHT22;24282;48.400;10.808;2023-02-11T00:03:57;-3274.50;79.10
38514;DHT22;24282;48.400;10.808;2023-02-11T00:06:25;-3274.50;79.20
38514;DHT22;24282;48.400;10.808;2023-02-11T00:08:52;-3274.60;79.20
38514;DHT22;24282;48.400;10.808;2023-02-11T00:11:20;-3274.60;79.20
38514;DHT22;24282;48.400;10.808;2023-02-11T00:13:46;-3274.60;79.20
38514;DHT22;24282;48.400;10.808;2023-02-11T00:16:15;-3274.60;79.20
38514;DHT22;24282;48.400;10.808;2023-02-11T00:18:41;-3274.60;79.10
38514;DHT22;24282;48.400;10.808;2023-02-11T00:21:08;-3274.60;79.00
38514;DHT22;24282;48.400;10.808;2023-02-11T00:23:35;-3274.60;78.70
38514;DHT22;24282;48.400;10.808;2023-02-11T00:26:00;-3274.60;78.40
38514;DHT22;24282;48.400;10.808;2023-02-11T00:28:26;-3274.60;78.20
38514;DHT22;24282;48.400;10.808;2023-02-11T00:30:58;-3274.50;78.30
38514;DHT22;24282;48.400;10.808;2023-02-11T00:33:23;-3274.50;78.30
38514;DHT22;24282;48.400;10.808;2023-02-11T00:35:49;-3274.40;78.30
38514;DHT22;24282;48.400;10.808;2023-02-11T00:38:15;-3274.40;78.10
38514;DHT22;24282;48.400;10.808;2023-02-11T00:40:41;-3274.40;78.00
38514;DHT22;24282;48.400;10.808;2023-02-11T00:43:07;-3274.40;77.80
38514;DHT22;24282;48.400;10.808;2023-02-11T00:45:32;-3274.40;77.70
38514;DHT22;24282;48.400;10.808;2023-02-11T00:48:00;-3274.40;77.60
38514;DHT22;24282;48.400;10.808;2023-02-11T00:50:27;-3274.40;77.60
38514;DHT22;24282;48.400;10.808;2023-02-11T00:52:54;-3274.30;77.60
38514;DHT22;24282;48.400;10.808;2023-02-11T00:55:20;-3274.30;77.60
38514;DHT22;24282;48.400;10.808;2023-02-11T00:57:46;-3274.20;77.60
38514;DHT22;24282;48.400;10.808;2023-02-11T01:00:13;-3274.30;77.60
38514;DHT22;24282;48.400;10.808;2023-02-11T01:02:40;-3274.20;77.60
38514;DHT22;24282;48.400;10.808;2023-02-11T01:05:06;-3274.20;77.70
38514;DHT22;24282;48.400;10.808;2023-02-11T01:07:32;-3274.20;77.70
38514;DHT22;24282;48.400;10.808;2023-02-11T01:09:58;-3274.10;77.70
38514;DHT22;24282;48.400;10.808;2023-02-11T01:12:24;-3274.10;77.80
38514;DHT22;24282;48.400;10.808;2023-02-11T01:14:49;-3274.10;77.90
38514;DHT22;24282;48.400;10.808;2023-02-11T01:17:18;-3274.10;78.00
38514;DHT22;24282;48.400;10.808;2023-02-11T01:19:43;-3274.00;78.10
38514;DHT22;24282;48.400;10.808;2023-02-11T01:22:09;-3274.00;78.50
38514;DHT22;24282;48.400;10.808;2023-02-11T01:24:35;-3274.00;78.80
38514;DHT22;24282;48.400;10.808;2023-02-11T01:27:01;-3274.00;79.10
38514;DHT22;24282;48.400;10.808;2023-02-11T01:29:26;-3274.00;79.10
38514;DHT22;24282;48.400;10.808;2023-02-11T01:31:53;-3274.00;79.00
38514;DHT22;24282;48.400;10.808;2023-02-11T01:34:19;-3274.00;79.00
38514;DHT22;24282;48.400;10.808;2023-02-11T01:36:45;-3274.00;78.80
38514;DHT22;24282;48.400;10.808;2023-02-11T01:39:10;-3274.00;78.70
38514;DHT22;24282;48.400;10.808;2023-02-11T01:41:37;-3274.00;78.70
38514;DHT22;24282;48.400;10.808;2023-02-11T01:44:33;-3274.00;78.70
38514;DHT22;24282;48.400;10.808;2023-02-11T01:47:00;-3274.00;78.60
38514;DHT22;24282;48.400;10.808;2023-02-11T01:49:38;-3274.00;78.30
38514;DHT22;24282;48.400;10.808;2023-02-11T01:52:21;-3273.90;78.10
38514;DHT22;24282;48.400;10.808;2023-02-11T01:54:53;-3273.90;78.10
38514;DHT22;24282;48.400;10.808;2023-02-11T01:57:40;-3273.90;78.00
38514;DHT22;24282;48.400;10.808;2023-02-11T02:08:16;-3273.80;78.20
38514;DHT22;24282;48.400;10.808;2023-02-11T02:10:47;-3273.80;78.20
38514;DHT22;24282;48.400;10.808;2023-02-11T02:13:15;-3273.80;78.20
38514;DHT22;24282;48.400;10.808;2023-02-11T02:15:55;-3273.80;78.20
38514;DHT22;24282;48.400;10.808;2023-02-11T02:32:22;-3273.80;80.00
38514;DHT22;24282;48.400;10.808;2023-02-11T02:37:56;-3273.90;80.30
38514;DHT22;24282;48.400;10.808;2023-02-11T02:40:33;-3273.90;80.20
38514;DHT22;24282;48.400;10.808;2023-02-11T02:43:00;-3273.90;80.10
38514;DHT22;24282;48.400;10.808;2023-02-11T02:45:27;-3273.90;80.20
38514;DHT22;24282;48.400;10.808;2023-02-11T02:47:53;-3273.90;80.20
38514;DHT22;24282;48.400;10.808;2023-02-11T02:50:25;-3273.90;80.30
38514;DHT22;24282;48.400;10.808;2023-02-11T02:53:05;-3273.90;80.30
38514;DHT22;24282;48.400;10.808;2023-02-11T02:58:29;-3273.90;79.40
38514;DHT22;24282;48.400;10.808;2023-02-11T03:03:52;-3273.80;79.10
38514;DHT22;24282;48.400;10.808;2023-02-11T03:06:54;-3273.80;78.60
38514;DHT22;24282;48.400;10.808;2023-02-11T03:09:35;-3273.70;78.30
38514;DHT22;24282;48.400;10.808;2023-02-11T03:12:03;-3273.70;78.20
38514;DHT22;24282;48.400;10.808;2023-02-11T03:14:31;-3273.70;78.20
38514;DHT22;24282;48.400;10.808;2023-02-11T03:17:00;-3273.60;78.20
38514;DHT22;24282;48.400;10.808;2023-02-11T03:19:37;-3273.60;78.30
38514;DHT22;24282;48.400;10.808;2023-02-11T03:22:07;-3273.60;78.40
38514;DHT22;24282;48.400;10.808;2023-02-11T03:24:37;-3273.60;78.50
38514;DHT22;24282;48.400;10.808;2023-02-11T03:27:37;-3273.50;78.50
38514;DHT22;24282;48.400;10.808;2023-02-11T03:33:00;-3273.50;78.70
38514;DHT22;24282;48.400;10.808;2023-02-11T03:35:47;-3273.50;78.80
38514;DHT22;24282;48.400;10.808;2023-02-11T03:38:28;-3273.50;78.90
38514;DHT22;24282;48.400;10.808;2023-02-11T03:40:57;-3273.50;79.30
38514;DHT22;24282;48.400;10.808;2023-02-11T03:45:57;-3273.60;79.90
38514;DHT22;24282;48.400;10.808;2023-02-11T03:48:33;-3273.60;80.20
38514;DHT22;24282;48.400;10.808;2023-02-11T03:51:02;-3273.60;80.40
38514;DHT22;24282;48.400;10.808;2023-02-11T03:53:29;-3273.60;80.60
38514;DHT22;24282;48.400;10.808;2023-02-11T03:55:57;-3273.60;81.00
38514;DHT22;24282;48.400;10.808;2023-02-11T03:58:24;-3273.60;81.20
38514;DHT22;24282;48.400;10.808;2023-02-11T04:00:50;-3273.70;81.30
38514;DHT22;24282;48.400;10.808;2023-02-11T04:03:16;-3273.70;81.50
38514;DHT22;24282;48.400;10.808;2023-02-11T04:05:42;-3273.70;81.60
38514;DHT22;24282;48.400;10.808;2023-02-11T04:08:08;-3273.70;81.60
38514;DHT22;24282;48.400;10.808;2023-02-11T04:10:34;-3273.80;81.50
38514;DHT22;24282;48.400;10.808;2023-02-11T04:12:59;-3273.80;81.40
38514;DHT22;24282;48.400;10.808;2023-02-11T04:15:25;-3273.80;81.30
38514;DHT22;24282;48.400;10.808;2023-02-11T04:17:51;-3273.80;81.20
38514;DHT22;24282;48.400;10.808;2023-02-11T04:20:17;-3273.80;81.00
38514;DHT22;24282;48.400;10.808;2023-02-11T04:22:43;-3273.80;80.70
38514;DHT22;24282;48.400;10.808;2023-02-11T04:25:08;-3273.80;80.30
38514;DHT22;24282;48.400;10.808;2023-02-11T04:27:35;-3273.90;80.10
38514;DHT22;24282;48.400;10.808;2023-02-11T04:30:01;-3273.80;79.90
38514;DHT22;24282;48.400;10.808;2023-02-11T04:32:26;-3273.80;79.80
38514;DHT22;24282;48.400;10.808;2023-02-11T04:34:52;-3273.80;79.70
38514;DHT22;24282;48.400;10.808;2023-02-11T04:37:19;-3273.80;79.70
38514;DHT22;24282;48.400;10.808;2023-02-11T04:39:45;-3273.80;79.70
38514;DHT22;24282;48.400;10.808;2023-02-11T04:42:10;-3273.80;79.90
38514;DHT22;24282;48.400;10.808;2023-02-11T04:44:36;-3273.90;80.10
38514;DHT22;24282;48.400;10.808;2023-02-11T04:47:02;-3273.90;80.40
38514;DHT22;24282;48.400;10.808;2023-02-11T04:49:28;-3273.90;80.70
38514;DHT22;24282;48.400;10.808;2023-02-11T04:51:54;-3273.90;80.90
38514;DHT22;24282;48.400;10.808;2023-02-11T04:54:19;-3273.90;81.10
38514;DHT22;24282;48.400;10.808;2023-02-11T04:56:46;-3273.90;81.20
38514;DHT22;24282;48.400;10.808;2023-02-11T04:59:12;-3273.90;81.20
38514;DHT22;24282;48.400;10.808;2023-02-11T05:01:38;-3273.90;81.20
38514;DHT22;24282;48.400;10.808;2023-02-11T05:04:04;-3274.00;81.40
38514;DHT22;24282;48.400;10.808;2023-02-11T05:06:30;-3274.00;81.60
38514;DHT22;24282;48.400;10.808;2023-02-11T05:08:56;-3274.10;81.70
38514;DHT22;24282;48.400;10.808;2023-02-11T05:11:23;-3274.10;81.90
38514;DHT22;24282;48.400;10.808;2023-02-11T05:13:49;-3274.10;81.90
38514;DHT22;24282;48.400;10.808;2023-02-11T05:16:16;-3274.20;82.00
38514;DHT22;24282;48.400;10.808;2023-02-11T05:18:43;-3274.20;82.00
38514;DHT22;24282;48.400;10.808;2023-02-11T05:21:12;-3274.20;82.00
38514;DHT22;24282;48.400;10.808;2023-02-11T05:23:38;-3274.30;81.90
38514;DHT22;24282;48.400;10.808;2023-02-11T05:26:05;-3274.30;81.90
38514;DHT22;24282;48.400;10.808;2023-02-11T05:28:31;-3274.30;82.20
38514;DHT22;24282;48.400;10.808;2023-02-11T05:30:57;-3274.40;82.30
38514;DHT22;24282;48.400;10.808;2023-02-11T05:33:23;-3274.40;82.30
38514;DHT22;24282;48.400;10.808;2023-02-11T05:35:49;-3274.40;82.40
38514;DHT22;24282;48.400;10.808;2023-02-11T05:38:15;-3274.40;82.40
38514;DHT22;24282;48.400;10.808;2023-02-11T05:40:41;-3274.40;82.40
38514;DHT22;24282;48.400;10.808;2023-02-11T05:43:06;-3274.40;82.40
38514;DHT22;24282;48.400;10.808;2023-02-11T05:45:32;-3274.50;82.40
38514;DHT22;24282;48.400;10.808;2023-02-11T05:47:59;-3274.50;82.50
38514;DHT22;24282;48.400;10.808;2023-02-11T05:50:25;-3274.60;82.50
38514;DHT22;24282;48.400;10.808;2023-02-11T05:52:51;-3274.50;82.50
38514;DHT22;24282;48.400;10.808;2023-02-11T05:55:17;-3274.60;82.50
38514;DHT22;24282;48.400;10.808;2023-02-11T05:57:43;-3274.60;82.50
38514;DHT22;24282;48.400;10.808;2023-02-11T06:00:09;-3274.60;82.50
38514;DHT22;24282;48.400;10.808;2023-02-11T06:02:38;-3274.60;82.50
38514;DHT22;24282;48.400;10.808;2023-02-11T06:05:04;-3274.70;82.40
38514;DHT22;24282;48.400;10.808;2023-02-11T06:07:30;-3274.70;82.50
38514;DHT22;24282;48.400;10.808;2023-02-11T06:09:56;-3274.70;82.50
38514;DHT22;24282;48.400;10.808;2023-02-11T06:12:22;-3274.70;82.50
38514;DHT22;24282;48.400;10.808;2023-02-11T06:14:48;-3274.70;82.60
38514;DHT22;24282;48.400;10.808;2023-02-11T06:17:13;-3274.70;82.70
38514;DHT22;24282;48.400;10.808;2023-02-11T06:19:39;-3274.70;82.80
38514;DHT22;24282;48.400;10.808;2023-02-11T06:22:04;-3274.80;82.90
38514;DHT22;24282;48.400;10.808;2023-02-11T06:24:30;-3274.80;82.90
38514;DHT22;24282;48.400;10.808;2023-02-11T06:26:56;-3274.80;82.80
38514;DHT22;24282;48.400;10.808;2023-02-11T06:29:22;-3274.80;82.80
38514;DHT22;24282;48.400;10.808;2023-02-11T06:31:47;-3274.80;82.80
38514;DHT22;24282;48.400;10.808;2023-02-11T06:34:13;-3274.80;82.80
38514;DHT22;24282;48.400;10.808;2023-02-11T06:36:39;-3274.80;82.70
38514;DHT22;24282;48.400;10.808;2023-02-11T06:39:06;-3274.90;82.70
38514;DHT22;24282;48.400;10.808;2023-02-11T06:41:32;-3274.90;82.80
38514;DHT22;24282;48.400;10.808;2023-02-11T06:43:58;-3274.90;82.80
38514;DHT22;24282;48.400;10.808;2023-02-11T06:46:23;-3274.90;82.80
38514;DHT22;24282;48.400;10.808;2023-02-11T06:48:49;-3274.90;82.80
38514;DHT22;24282;48.400;10.808;2023-02-11T06:51:16;-3274.90;82.80
38514;DHT22;24282;48.400;10.808;2023-02-11T06:53:45;-3275.00;82.80
38514;DHT22;24282;48.400;10.808;2023-02-11T06:56:13;-3275.00;82.90
38514;DHT22;24282;48.400;10.808;2023-02-11T06:58:39;-3275.00;82.90
38514;DHT22;24282;48.400;10.808;2023-02-11T07:01:11;-3275.00;82.90
38514;DHT22;24282;48.400;10.808;2023-02-11T07:03:39;-3275.00;82.90
38514;DHT22;24282;48.400;10.808;2023-02-11T07:06:06;-3275.00;82.90
38514;DHT22;24282;48.400;10.808;2023-02-11T07:08:34;-3275.00;82.90
38514;DHT22;24282;48.400;10.808;2023-02-11T07:11:00;-3275.10;82.90
38514;DHT22;24282;48.400;10.808;2023-02-11T07:13:26;-3275.10;82.90
38514;DHT22;24282;48.400;10.808;2023-02-11T07:15:52;-3275.10;82.90
38514;DHT22;24282;48.400;10.808;2023-02-11T07:18:17;-3275.10;83.00
38514;DHT22;24282;48.400;10.808;2023-02-11T07:20:43;-3275.10;82.90
38514;DHT22;24282;48.400;10.808;2023-02-11T07:23:09;-3275.20;82.90
38514;DHT22;24282;48.400;10.808;2023-02-11T07:25:35;-3275.20;82.90
38514;DHT22;24282;48.400;10.808;2023-02-11T07:28:01;-3275.20;82.80
38514;DHT22;24282;48.400;10.808;2023-02-11T07:30:27;-3275.30;82.80
38514;DHT22;24282;48.400;10.808;2023-02-11T07:32:53;-3275.30;82.80
38514;DHT22;24282;48.400;10.808;2023-02-11T07:35:18;-3275.40;82.80
38514;DHT22;24282;48.400;10.808;2023-02-11T07:37:44;-3275.40;82.80
38514;DHT22;24282;48.400;10.808;2023-02-11T07:40:10;-3275.40;82.80
38514;DHT22;24282;48.400;10.808;2023-02-11T07:42:36;-3275.50;82.80
38514;DHT22;24282;48.400;10.808;2023-02-11T07:45:02;-3275.50;82.80
38514;DHT22;24282;48.400;10.808;2023-02-11T07:47:27;-3275.60;82.80
38514;DHT22;24282;48.400;10.808;2023-02-11T07:49:53;-3275.70;82.70
38514;DHT22;24282;48.400;10.808;2023-02-11T07:52:19;-3275.70;82.60
38514;DHT22;24282;48.400;10.808;2023-02-11T07:54:44;-3275.80;82.60
38514;DHT22;24282;48.400;10.808;2023-02-11T07:57:12;-3275.80;82.50
38514;DHT22;24282;48.400;10.808;2023-02-11T07:59:38;-3275.80;82.50
38514;DHT22;24282;48.400;10.808;2023-02-11T08:02:04;-3275.90;82.50
38514;DHT22;24282;48.400;10.808;2023-02-11T08:04:29;-3275.90;82.60
38514;DHT22;24282;48.400;10.808;2023-02-11T08:06:55;-3275.90;82.60
38514;DHT22;24282;48.400;10.808;2023-02-11T08:09:22;-3275.90;82.60
38514;DHT22;24282;48.400;10.808;2023-02-11T08:11:48;-3275.90;82.60
38514;DHT22;24282;48.400;10.808;2023-02-11T08:14:14;-3276.00;82.60
38514;DHT22;24282;48.400;10.808;2023-02-11T08:16:40;-3276.00;82.70
38514;DHT22;24282;48.400;10.808;2023-02-11T08:19:09;-3276.10;82.60
38514;DHT22;24282;48.400;10.808;2023-02-11T08:21:36;-3276.20;82.50
38514;DHT22;24282;48.400;10.808;2023-02-11T08:24:02;-3276.20;82.30
38514;DHT22;24282;48.400;10.808;2023-02-11T08:26:29;-3276.30;82.10
38514;DHT22;24282;48.400;10.808;2023-02-11T08:28:57;-3276.40;81.90
38514;DHT22;24282;48.400;10.808;2023-02-11T08:31:29;-3276.40;81.80
38514;DHT22;24282;48.400;10.808;2023-02-11T08:33:55;-3276.50;81.70
38514;DHT22;24282;48.400;10.808;2023-02-11T08:36:24;-3276.60;81.30
38514;DHT22;24282;48.400;10.808;2023-02-11T08:38:52;-3276.70;80.90
38514;DHT22;24282;48.400;10.808;2023-02-11T08:41:18;0.00;80.70
38514;DHT22;24282;48.400;10.808;2023-02-11T08:43:45;0.10;80.80
38514;DHT22;24282;48.400;10.808;2023-02-11T08:46:14;0.20;80.40
38514;DHT22;24282;48.400;10.808;2023-02-11T08:48:40;0.30;79.20
38514;DHT22;24282;48.400;10.808;2023-02-11T08:51:13;0.40;78.90
38514;DHT22;24282;48.400;10.808;2023-02-11T08:53:39;0.50;78.80
38514;DHT22;24282;48.400;10.808;2023-02-11T08:56:07;0.60;77.50
38514;DHT22;24282;48.400;10.808;2023-02-11T08:58:34;0.60;77.00
38514;DHT22;24282;48.400;10.808;2023-02-11T09:00:59;0.80;75.90
38514;DHT22;24282;48.400;10.808;2023-02-11T09:03:25;0.80;75.80
38514;DHT22;24282;48.400;10.808;2023-02-11T09:05:51;0.80;75.50
38514;DHT22;24282;48.400;10.808;2023-02-11T09:08:21;0.80;75.80
38514;DHT22;24282;48.400;10.808;2023-02-11T09:10:47;0.80;75.90
38514;DHT22;24282;48.400;10.808;2023-02-11T09:13:13;0.80;76.10
38514;DHT22;24282;48.400;10.808;2023-02-11T09:15:39;0.80;76.20
38514;DHT22;24282;48.400;10.808;2023-02-11T09:18:05;0.80;76.20
38514;DHT22;24282;48.400;10.808;2023-02-11T09:20:31;0.90;76.00
38514;DHT22;24282;48.400;10.808;2023-02-11T09:22:57;1.00;76.10
38514;DHT22;24282;48.400;10.808;2023-02-11T09:25:23;1.00;76.20
38514;DHT22;24282;48.400;10.808;2023-02-11T09:27:49;1.10;76.10
38514;DHT22;24282;48.400;10.808;2023-02-11T09:30:16;1.10;75.60
38514;DHT22;24282;48.400;10.808;2023-02-11T09:32:42;1.20;74.70
38514;DHT22;24282;48.400;10.808;2023-02-11T09:35:08;1.20;74.80
38514;DHT22;24282;48.400;10.808;2023-02-11T09:37:34;1.20;74.70
38514;DHT22;24282;48.400;10.808;2023-02-11T09:40:00;1.20;74.80
38514;DHT22;24282;48.400;10.808;2023-02-11T09:45:27;1.30;75.70
38514;DHT22;24282;48.400;10.808;2023-02-11T09:47:57;1.30;76.20
38514;DHT22;24282;48.400;10.808;2023-02-11T09:50:33;1.30;76.60
38514;DHT22;24282;48.400;10.808;2023-02-11T09:53:03;1.40;76.90
38514;DHT22;24282;48.400;10.808;2023-02-11T09:55:32;1.50;76.90
38514;DHT22;24282;48.400;10.808;2023-02-11T09:58:06;1.50;76.90
38514;DHT22;24282;48.400;10.808;2023-02-11T10:00:39;1.70;77.10
38514;DHT22;24282;48.400;10.808;2023-02-11T10:06:43;1.90;75.90
38514;DHT22;24282;48.400;10.808;2023-02-11T10:09:31;2.00;74.50
38514;DHT22;24282;48.400;10.808;2023-02-11T10:12:15;2.10;74.30
38514;DHT22;24282;48.400;10.808;2023-02-11T10:23:09;2.20;74.20
38514;DHT22;24282;48.400;10.808;2023-02-11T10:25:39;2.30;74.00
38514;DHT22;24282;48.400;10.808;2023-02-11T10:28:16;2.30;73.40
38514;DHT22;24282;48.400;10.808;2023-02-11T10:36:20;2.60;72.10
38514;DHT22;24282;48.400;10.808;2023-02-11T10:38:48;2.70;71.90
38514;DHT22;24282;48.400;10.808;2023-02-11T10:41:20;2.80;71.80
38514;DHT22;24282;48.400;10.808;2023-02-11T10:43:47;2.90;70.70
38514;DHT22;24282;48.400;10.808;2023-02-11T10:46:23;3.00;69.80
38514;DHT22;24282;48.400;10.808;2023-02-11T10:48:52;3.00;69.20
38514;DHT22;24282;48.400;10.808;2023-02-11T10:51:26;3.10;69.30
38514;DHT22;24282;48.400;10.808;2023-02-11T10:56:49;3.20;69.50
38514;DHT22;24282;48.400;10.808;2023-02-11T11:01:59;3.40;69.40
38514;DHT22;24282;48.400;10.808;2023-02-11T11:12:27;3.60;69.90
38514;DHT22;24282;48.400;10.808;2023-02-11T11:14:58;3.60;70.30
38514;DHT22;24282;48.400;10.808;2023-02-11T11:17:25;3.70;70.60
38514;DHT22;24282;48.400;10.808;2023-02-11T11:20:13;3.80;70.40
38514;DHT22;24282;48.400;10.808;2023-02-11T11:22:40;4.00;70.10
38514;DHT22;24282;48.400;10.808;2023-02-11T11:25:20;4.10;69.60
38514;DHT22;24282;48.400;10.808;2023-02-11T11:27:49;4.10;69.70
38514;DHT22;24282;48.400;10.808;2023-02-11T11:30:15;4.10;69.40
38514;DHT22;24282;48.400;10.808;2023-02-11T11:32:41;4.00;69.60
38514;DHT22;24282;48.400;10.808;2023-02-11T11:35:27;4.00;70.20
38514;DHT22;24282;48.400;10.808;2023-02-11T11:38:03;4.00;70.10
38514;DHT22;24282;48.400;10.808;2023-02-11T11:40:31;3.90;70.10
38514;DHT22;24282;48.400;10.808;2023-02-11T11:45:39;4.10;70.20
38514;DHT22;24282;48.400;10.808;2023-02-11T11:48:27;4.20;69.50
38514;DHT22;24282;48.400;10.808;2023-02-11T11:51:09;4.20;69.70
38514;DHT22;24282;48.400;10.808;2023-02-11T11:56:20;4.50;69.30
38514;DHT22;24282;48.400;10.808;2023-02-11T11:58:47;4.70;68.70
38514;DHT22;24282;48.400;10.808;2023-02-11T12:01:53;4.60;68.60
38514;DHT22;24282;48.400;10.808;2023-02-11T12:08:12;4.70;69.20
38514;DHT22;24282;48.400;10.808;2023-02-11T12:10:50;4.90;69.30
38514;DHT22;24282;48.400;10.808;2023-02-11T12:26:42;5.90;66.70
38514;DHT22;24282;48.400;10.808;2023-02-11T12:40:31;6.90;62.70
38514;DHT22;24282;48.400;10.808;2023-02-11T12:43:24;7.00;61.80
38514;DHT22;24282;48.400;10.808;2023-02-11T12:54:52;7.40;60.40
38514;DHT22;24282;48.400;10.808;2023-02-11T12:57:31;7.50;60.10
38514;DHT22;24282;48.400;10.808;2023-02-11T13:00:25;7.40;59.60
38514;DHT22;24282;48.400;10.808;2023-02-11T13:03:11;7.40;60.30
38514;DHT22;24282;48.400;10.808;2023-02-11T13:05:51;7.50;60.60
38514;DHT22;24282;48.400;10.808;2023-02-11T13:14:07;7.40;60.50
38514;DHT22;24282;48.400;10.808;2023-02-11T13:37:57;6.80;63.20
38514;DHT22;24282;48.400;10.808;2023-02-11T13:40:34;6.80;63.00
38514;DHT22;24282;48.400;10.808;2023-02-11T13:43:03;6.80;63.20
38514;DHT22;24282;48.400;10.808;2023-02-11T13:48:36;6.80;63.70
38514;DHT22;24282;48.400;10.808;2023-02-11T13:51:11;6.80;63.50
38514;DHT22;24282;48.400;10.808;2023-02-11T13:53:48;6.70;64.10
38514;DHT22;24282;48.400;10.808;2023-02-11T13:56:36;6.70;64.20
38514;DHT22;24282;48.400;10.808;2023-02-11T14:13:31;6.60;64.60
38514;DHT22;24282;48.400;10.808;2023-02-11T14:16:12;6.60;64.50
38514;DHT22;24282;48.400;10.808;2023-02-11T14:23:39;6.60;64.40
38514;DHT22;24282;48.400;10.808;2023-02-11T14:26:28;6.60;65.00
38514;DHT22;24282;48.400;10.808;2023-02-11T14:29:00;6.60;65.20
38514;DHT22;24282;48.400;10.808;2023-02-11T14:37:12;6.40;66.00
38514;DHT22;24282;48.400;10.808;2023-02-11T14:40:21;6.40;65.80
38514;DHT22;24282;48.400;10.808;2023-02-11T14:42:50;6.40;65.80
38514;DHT22;24282;48.400;10.808;2023-02-11T14:45:21;6.30;66.10
38514;DHT22;24282;48.400;10.808;2023-02-11T14:48:11;6.40;65.00
38514;DHT22;24282;48.400;10.808;2023-02-11T14:50:51;6.30;65.50
38514;DHT22;24282;48.400;10.808;2023-02-11T14:53:21;6.30;66.10
38514;DHT22;24282;48.400;10.808;2023-02-11T14:55:53;6.20;66.00
38514;DHT22;24282;48.400;10.808;2023-02-11T15:00:55;6.10;66.30
38514;DHT22;24282;48.400;10.808;2023-02-11T15:03:39;6.00;66.60
38514;DHT22;24282;48.400;10.808;2023-02-11T15:08:36;6.00;66.90
38514;DHT22;24282;48.400;10.808;2023-02-11T15:11:09;6.00;67.10
38514;DHT22;24282;48.400;10.808;2023-02-11T15:13:37;6.00;67.00
38514;DHT22;24282;48.400;10.808;2023-02-11T15:16:06;5.90;67.00
38514;DHT22;24282;48.400;10.808;2023-02-11T15:18:39;5.90;67.10
38514;DHT22;24282;48.400;10.808;2023-02-11T15:21:06;5.90;67.30
38514;DHT22;24282;48.400;10.808;2023-02-11T15:23:33;5.90;67.30
38514;DHT22;24282;48.400;10.808;2023-02-11T15:25:59;5.90;67.20
38514;DHT22;24282;48.400;10.808;2023-02-11T15:28:33;5.90;67.20
38514;DHT22;24282;48.400;10.808;2023-02-11T15:31:00;5.80;67.20
38514;DHT22;24282;48.400;10.808;2023-02-11T15:33:26;5.80;67.40
38514;DHT22;24282;48.400;10.808;2023-02-11T15:35:55;5.80;67.80
38514;DHT22;24282;48.400;10.808;2023-02-11T15:38:21;5.80;67.90
38514;DHT22;24282;48.400;10.808;2023-02-11T15:40:54;5.80;67.70
38514;DHT22;24282;48.400;10.808;2023-02-11T15:43:20;5.70;67.60
38514;DHT22;24282;48.400;10.808;2023-02-11T15:46:01;5.70;67.80
38514;DHT22;24282;48.400;10.808;2023-02-11T15:48:31;5.70;68.30
38514;DHT22;24282;48.400;10.808;2023-02-11T15:51:01;5.70;68.60
38514;DHT22;24282;48.400;10.808;2023-02-11T15:53:35;5.70;68.80
38514;DHT22;24282;48.400;10.808;2023-02-11T15:58:52;5.60;68.90
38514;DHT22;24282;48.400;10.808;2023-02-11T16:01:28;5.60;68.80
38514;DHT22;24282;48.400;10.808;2023-02-11T16:03:54;5.50;69.00
38514;DHT22;24282;48.400;10.808;2023-02-11T16:06:25;5.50;69.50
38514;DHT22;24282;48.400;10.808;2023-02-11T16:09:19;5.50;69.80
38514;DHT22;24282;48.400;10.808;2023-02-11T16:16:56;5.30;70.40
38514;DHT22;24282;48.400;10.808;2023-02-11T16:19:24;5.20;70.70
38514;DHT22;24282;48.400;10.808;2023-02-11T16:21:51;5.20;70.90
38514;DHT22;24282;48.400;10.808;2023-02-11T16:24:24;5.10;71.10
38514;DHT22;24282;48.400;10.808;2023-02-11T16:27:07;5.10;71.30
38514;DHT22;24282;48.400;10.808;2023-02-11T16:29:45;5.00;71.70
38514;DHT22;24282;48.400;10.808;2023-02-11T16:32:22;4.90;72.00
38514;DHT22;24282;48.400;10.808;2023-02-11T16:34:49;4.90;72.20
38514;DHT22;24282;48.400;10.808;2023-02-11T16:37:15;4.80;72.40
38514;DHT22;24282;48.400;10.808;2023-02-11T16:39:41;4.70;72.60
38514;DHT22;24282;48.400;10.808;2023-02-11T16:42:06;4.60;72.80
38514;DHT22;24282;48.400;10.808;2023-02-11T16:44:33;4.50;73.10
38514;DHT22;24282;48.400;10.808;2023-02-11T16:47:00;4.50;73.20
38514;DHT22;24282;48.400;10.808;2023-02-11T16:49:30;4.50;73.30
38514;DHT22;24282;48.400;10.808;2023-02-11T16:52:01;4.50;73.40
38514;DHT22;24282;48.400;10.808;2023-02-11T16:54:30;4.40;73.70
38514;DHT22;24282;48.400;10.808;2023-02-11T16:56:56;4.30;73.90
38514;DHT22;24282;48.400;10.808;2023-02-11T16:59:22;4.30;74.30
38514;DHT22;24282;48.400;10.808;2023-02-11T17:01:49;4.20;74.50
38514;DHT22;24282;48.400;10.808;2023-02-11T17:04:22;4.20;74.60
38514;DHT22;24282;48.400;10.808;2023-02-11T17:06:49;4.20;74.80
38514;DHT22;24282;48.400;10.808;2023-02-11T17:09:18;4.10;74.90
38514;DHT22;24282;48.400;10.808;2023-02-11T17:11:44;4.10;75.10
38514;DHT22;24282;48.400;10.808;2023-02-11T17:14:10;4.10;75.20
38514;DHT22;24282;48.400;10.808;2023-02-11T17:16:38;4.10;75.30
38514;DHT22;24282;48.400;10.808;2023-02-11T17:19:04;4.00;75.40
38514;DHT22;24282;48.400;10.808;2023-02-11T17:21:30;4.00;75.50
38514;DHT22;24282;48.400;10.808;2023-02-11T17:23:57;4.00;75.60
38514;DHT22;24282;48.400;10.808;2023-02-11T17:26:23;4.00;75.70
38514;DHT22;24282;48.400;10.808;2023-02-11T17:28:49;3.90;75.80
38514;DHT22;24282;48.400;10.808;2023-02-11T17:31:15;3.90;75.90
38514;DHT22;24282;48.400;10.808;2023-02-11T17:33:40;3.90;76.10
38514;DHT22;24282;48.400;10.808;2023-02-11T17:36:07;3.90;76.10
38514;DHT22;24282;48.400;10.808;2023-02-11T17:38:34;3.90;76.10
38514;DHT22;24282;48.400;10.808;2023-02-11T17:41:02;3.80;76.10
38514;DHT22;24282;48.400;10.808;2023-02-11T17:43:29;3.80;76.10
38514;DHT22;24282;48.400;10.808;2023-02-11T17:45:55;3.80;76.10
38514;DHT22;24282;48.400;10.808;2023-02-11T17:48:22;3.80;76.10
38514;DHT22;24282;48.400;10.808;2023-02-11T17:50:47;3.80;76.20
38514;DHT22;24282;48.400;10.808;2023-02-11T17:53:13;3.80;76.30
38514;DHT22;24282;48.400;10.808;2023-02-11T17:55:39;3.70;76.30
38514;DHT22;24282;48.400;10.808;2023-02-11T17:58:05;3.70;76.40
38514;DHT22;24282;48.400;10.808;2023-02-11T18:00:31;3.70;76.50
38514;DHT22;24282;48.400;10.808;2023-02-11T18:02:57;3.70;76.40
38514;DHT22;24282;48.400;10.808;2023-02-11T18:05:27;3.60;76.40
38514;DHT22;24282;48.400;10.808;2023-02-11T18:07:53;3.60;76.50
38514;DHT22;24282;48.400;10.808;2023-02-11T18:10:20;3.50;76.60
38514;DHT22;24282;48.400;10.808;2023-02-11T18:12:45;3.50;76.60
38514;DHT22;24282;48.400;10.808;2023-02-11T18:15:11;3.50;76.70